Latest Weather Observations for Launceston Airport

IDT60801

Issued at 7:31 am EST Thursday 25 August 2016 (issued every 30 minutes, with the page automatically refreshed every 10 minutes)

About weather observations | Map of weather stations | Latest weather observations for TAS | Other Formats
Station Details ID: 091311 Name: LAUNCESTON AIRPORT Lat: -41.55 Lon: 147.21 Height: 166.9 m
Data from the previous 72 hours. | See also: Recent months at Launceston Airport
Date/Time
EST
Temp
°C
App
Temp
°C
Dew
Point
°C
Rel
Hum
%
Delta-T
°C
Wind Press
QNH
hPa
Press
MSL
hPa
Rain since
9am
mm
Dir  Spd
km/h
Gust
km/h
Spd
kts
Gust
kts
25/07:30am 0.5 -3.0 -1.4 87 0.7 SSE 7 11 4 6 1010.7 1011.1 0.0
25/07:00am -0.6 -5.0 -2.2 89 0.5 S 11 15 6 8 1010.7 1011.1 0.0
25/06:30am -0.4 -3.5 -2.3 87 0.6 SE 4 11 2 6 1010.5 1010.8 0.0
25/06:00am 0.2 -3.8 -1.9 86 0.7 S 9 13 5 7 1010.1 1010.4 0.0
25/05:30am 0.3 -4.4 -1.9 85 0.8 S 13 15 7 8 1009.9 1010.2 0.0
25/05:00am -0.1 -3.7 -2.3 85 0.8 S 7 13 4 7 1009.6 1009.9 0.0
25/04:30am 0.3 -4.4 -1.9 85 0.8 S 13 17 7 9 1009.5 1009.8 0.0
25/04:00am 0.1 -4.2 -1.6 88 0.6 S 11 13 6 7 1009.3 1009.6 0.0
25/03:30am 0.6 -3.7 -1.6 85 0.8 S 11 15 6 8 1009.3 1009.6 0.0
25/03:00am 1.0 -4.0 -1.2 85 0.8 S 15 19 8 10 1009.4 1009.7 0.0
25/02:30am 0.4 -4.0 -2.1 83 0.9 S 11 13 6 7 1009.4 1009.7 0.0
25/02:00am 1.8 -3.1 -0.8 83 0.9 S 15 19 8 10 1009.5 1009.8 0.0
25/01:30am 1.6 -2.6 -0.6 85 0.8 S 11 13 6 7 1009.6 1009.9 0.0
25/01:00am 2.0 -2.8 -0.1 86 0.8 S 15 17 8 9 1009.6 1009.9 0.0
25/12:30am 2.3 -2.0 0.7 89 0.6 S 13 17 7 9 1009.7 1010.0 0.0
25/12:00am 2.7 -1.7 0.4 85 0.9 S 13 15 7 8 1009.6 1009.9 0.0
 
Date/Time
EST
Temp
°C
App
Temp
°C
Dew
Point
°C
Rel
Hum
%
Delta-T
°C
Wind Press
QNH
hPa
Press
MSL
hPa
Rain since
9am
mm
Dir  Spd
km/h
Gust
km/h
Spd
kts
Gust
kts
24/11:30pm 3.3 -1.1 0.2 80 1.2 SSW 13 17 7 9 1009.7 1010.0 0.0
24/11:00pm 3.7 -1.1 -0.1 76 1.4 SW 15 17 8 9 1009.7 1010.0 0.0
24/10:30pm 4.2 0.5 -0.2 73 1.7 SSW 9 11 5 6 1009.8 1010.1 0.0
24/10:00pm 4.2 0.6 0.4 76 1.5 S 9 11 5 6 1010.1 1010.4 0.0
24/09:30pm 4.7 3.1 2.6 86 0.9 CALM 0 6 0 3 1010.2 1010.5 0.0
24/09:00pm 4.3 2.4 2.7 89 0.7 ENE 2 9 1 5 1010.3 1010.6 0.0
24/08:30pm 4.3 2.7 2.2 86 0.8 CALM 0 0 0 0 1010.3 1010.6 0.0
24/08:00pm 4.0 0.9 1.5 84 1.0 SSE 7 9 4 5 1010.5 1010.8 0.0
24/07:30pm 4.9 1.9 2.3 83 1.1 SSE 7 13 4 7 1010.4 1010.7 0.0
24/07:00pm 6.0 3.3 3.7 85 1.0 N 7 9 4 5 1010.2 1010.5 0.0
24/06:30pm 4.5 0.6 1.0 78 1.4 NNW 11 13 6 7 1010.1 1010.4 0.0
24/06:00pm 5.8 2.3 1.3 73 1.8 NNW 9 13 5 7 1010.0 1010.3 0.0
24/05:30pm 7.2 3.9 2.3 71 2.0 NNW 9 11 5 6 1009.7 1010.0 0.0
24/05:00pm 7.5 3.0 2.0 68 2.3 NW 15 20 8 11 1009.9 1010.2 0.0
24/04:30pm 8.6 4.9 2.4 65 2.6 NNW 11 13 6 7 1009.8 1010.1 0.0
24/04:00pm 9.8 7.3 1.7 57 3.4 NNW 4 13 2 7 1009.8 1010.1 0.0
24/03:30pm 10.7 8.0 2.5 57 3.5 NNE 6 7 3 4 1009.8 1010.1 0.0
24/03:00pm 11.1 7.6 1.1 50 4.2 NE 9 13 5 7 1009.8 1010.1 0.0
24/02:30pm 10.7 7.2 1.5 53 3.9 N 9 15 5 8 1010.1 1010.4 0.0
24/02:00pm 11.5 7.1 0.3 46 4.7 NNE 13 22 7 12 1010.3 1010.6 0.0
24/01:30pm 11.4 6.6 0.5 47 4.5 N 15 22 8 12 1010.7 1011.1 0.0
24/01:00pm 11.4 7.1 0.8 48 4.4 N 13 19 7 10 1011.1 1011.5 0.0
24/12:30pm 11.2 7.4 1.5 51 4.1 N 11 19 6 10 1011.5 1011.9 0.0
24/12:00pm 10.5 7.0 1.3 53 3.9 N 9 13 5 7 1012.2 1012.5 0.0
24/11:30am 9.9 6.1 2.0 58 3.4 NNW 11 17 6 9 1012.8 1013.1 0.0
24/11:00am 9.6 6.9 2.9 63 2.9 N 6 11 3 6 1013.3 1013.6 0.0
24/10:30am 7.7 5.8 2.6 70 2.2 SSE 2 9 1 5 1013.6 1013.9 0.0
24/10:00am 6.3 3.2 1.4 71 2.0 NE 7 9 4 5 1013.8 1014.1 0.0
24/09:30am 6.2 4.4 1.1 70 2.0 CALM 0 6 0 3 1014.1 1014.4 0.0
24/09:00am 4.5 2.2 0.5 75 1.5 NNE 2 9 1 5 1014.4 1014.7 0.0
24/08:30am 3.7 1.0 0.4 79 1.3 E 4 7 2 4 1014.6 1014.9 0.0
24/08:00am 2.3 -0.8 0.2 86 0.8 N 6 7 3 4 1014.6 1014.9 0.0
24/07:30am 0.6 -3.2 -1.0 89 0.6 W 9 9 5 5 1014.4 1014.7 0.0
24/07:00am 0.1 -2.1 -1.6 88 0.6 CALM 0 0 0 0 1014.4 1014.7 0.0
24/06:30am -0.4 -2.6 -1.8 90 0.5 CALM 0 0 0 0 1014.1 1014.4 0.0
24/06:00am -0.4 -2.6 -1.8 90 0.5 CALM 0 0 0 0 1014.1 1014.4 0.0
24/05:30am 0.0 -2.2 -1.7 88 0.6 CALM 0 0 0 0 1014.0 1014.3 0.0
24/05:00am -0.3 -2.9 -1.9 89 0.5 NE 2 6 1 3 1014.0 1014.3 0.0
24/04:30am -0.6 -3.3 -2.2 89 0.5 NNE 2 7 1 4 1014.0 1014.3 0.0
24/04:00am -0.3 -2.6 -2.5 85 0.7 CALM 0 2 0 1 1014.0 1014.3 0.0
24/03:30am -0.2 -3.6 -2.4 85 0.7 WSW 6 9 3 5 1014.0 1014.3 0.0
24/03:00am 1.6 -1.8 -0.8 84 0.9 NW 7 9 4 5 1013.9 1014.2 0.0
24/02:30am 1.3 -2.0 -0.9 85 0.8 NW 6 7 3 4 1014.1 1014.4 0.0
24/02:00am 0.6 -3.3 -1.8 84 0.9 NNW 9 9 5 5 1014.4 1014.7 0.0
24/01:30am 0.9 -2.6 -1.3 85 0.8 NW 7 9 4 5 1014.7 1015.0 0.0
24/01:00am 1.1 -2.2 -1.5 83 0.9 N 6 9 3 5 1014.8 1015.1 0.0
24/12:30am 1.5 -1.9 -0.9 84 0.9 N 7 9 4 5 1015.1 1015.4 0.0
24/12:00am 2.3 -0.5 -0.4 82 1.0 WNW 4 6 2 3 1015.4 1015.7 0.0
 
Date/Time
EST
Temp
°C
App
Temp
°C
Dew
Point
°C
Rel
Hum
%
Delta-T
°C
Wind Press
QNH
hPa
Press
MSL
hPa
Rain since
9am
mm
Dir  Spd
km/h
Gust
km/h
Spd
kts
Gust
kts
23/11:30pm 2.4 0.0 -0.4 82 1.0 NNW 2 7 1 4 1015.5 1015.8 0.0
23/11:00pm 2.5 0.5 -0.3 82 1.0 CALM 0 0 0 0 1015.3 1015.6 0.0
23/10:30pm 3.7 0.7 0.9 82 1.1 NE 6 7 3 4 1015.3 1015.6 0.0
23/10:00pm 4.2 1.1 0.2 75 1.5 NNW 6 7 3 4 1015.4 1015.7 0.0
23/09:30pm 3.9 1.9 0.2 77 1.4 CALM 0 6 0 3 1015.3 1015.6 0.0
23/09:00pm 4.6 0.8 -0.4 70 1.9 SW 9 13 5 7 1015.2 1015.5 0.0
23/08:30pm 6.6 2.2 0.5 65 2.4 SW 13 19 7 10 1015.1 1015.4 0.0
23/08:00pm 5.3 3.4 0.7 72 1.8 CALM 0 0 0 0 1015.0 1015.3 0.0
23/07:30pm 7.2 4.0 0.6 63 2.6 N 7 11 4 6 1014.8 1015.1 0.0
23/07:00pm 5.7 2.5 0.7 70 2.0 NNW 7 11 4 6 1014.7 1015.0 0.0
23/06:30pm 7.1 5.3 1.2 66 2.4 CALM 0 0 0 0 1014.5 1014.8 0.0
23/06:00pm 7.8 5.9 0.8 61 2.8 CALM 0 0 0 0 1014.3 1014.6 0.0
23/05:30pm 9.2 7.2 -0.1 52 3.7 CALM 0 0 0 0 1014.0 1014.3 0.0
23/05:00pm 9.4 5.7 0.1 52 3.8 ESE 9 11 5 6 1013.8 1014.1 0.0
23/04:30pm 10.6 6.9 0.1 48 4.3 SE 9 11 5 6 1013.6 1013.9 0.0
23/04:00pm 10.9 7.7 -0.2 46 4.5 SE 6 11 3 6 1013.4 1013.7 0.0
23/03:30pm 11.2 7.0 -0.6 44 4.8 S 11 15 6 8 1013.2 1013.5 0.0
23/03:00pm 11.4 8.4 1.1 49 4.3 SE 6 13 3 7 1013.0 1013.3 0.0
23/02:30pm 11.7 9.0 0.5 46 4.7 SSE 4 13 2 7 1013.1 1013.4 0.0
23/02:00pm 11.4 8.4 0.5 47 4.5 ENE 6 11 3 6 1013.3 1013.6 0.0
23/01:30pm 11.5 8.8 0.6 47 4.6 E 4 7 2 4 1013.4 1013.7 0.0
23/01:00pm 10.6 7.2 -0.5 46 4.5 SSE 7 11 4 6 1013.6 1013.9 0.0
23/12:30pm 9.8 6.4 -2.2 43 4.6 NW 6 13 3 7 1013.9 1014.2 0.0
23/12:00pm 10.1 5.9 -3.6 38 5.1 N 9 15 5 8 1014.3 1014.6 0.0
23/11:30am 9.8 6.9 -1.0 47 4.3 NNW 4 9 2 5 1014.6 1014.9 0.0
23/11:00am 8.7 5.5 -0.3 53 3.6 NNW 6 9 3 5 1014.8 1015.1 0.0
23/10:30am 8.4 6.6 1.3 61 2.9 CALM 0 7 0 4 1014.7 1015.0 0.0
23/10:00am 6.7 4.6 1.8 71 2.0 ESE 2 6 1 3 1014.8 1015.1 0.0
23/09:30am 5.7 2.9 1.8 76 1.6 ENE 6 7 3 4 1015.0 1015.3 0.0
23/09:00am 4.5 2.8 1.7 82 1.1 CALM 0 0 0 0 1015.2 1015.5 0.0
23/08:30am 2.0 0.1 0.5 90 0.6 CALM 0 0 0 0 1015.1 1015.4 0.0
23/08:00am 0.6 -1.4 0.0 96 0.2 CALM 0 0 0 0 1015.0 1015.3 0.0
23/07:30am -0.6 -4.1 -1.2 96 0.2 S 7 11 4 6 1014.7 1015.0 0.0
23/07:00am -1.8 -5.3 -2.5 95 0.2 S 6 9 3 5 1014.2 1014.5 0.0
23/06:30am -1.0 -4.4 -1.7 95 0.2 S 6 7 3 4 1014.0 1014.3 0.0
23/06:00am -1.7 -5.4 -2.5 94 0.2 SSW 7 9 4 5 1013.8 1014.1 0.0
23/05:30am 0.0 -2.1 -0.6 96 0.2 CALM 0 0 0 0 1013.5 1013.8 0.0
23/05:00am -0.3 -2.4 -1.0 95 0.2 CALM 0 0 0 0 1013.4 1013.7 0.0
23/04:30am -0.2 -2.3 -0.9 95 0.2 CALM 0 4 0 2 1013.5 1013.8 0.0
23/04:00am 0.3 -1.8 -0.5 94 0.3 CALM 0 0 0 0 1013.4 1013.7 0.0
23/03:30am 1.2 -0.7 0.6 96 0.2 CALM 0 0 0 0 1013.3 1013.6 0.0
23/03:00am 0.3 -1.7 -0.3 96 0.2 CALM 0 0 0 0 1013.5 1013.8 0.0
23/02:30am 0.0 -3.2 -0.8 94 0.3 NE 6 7 3 4 1013.6 1013.9 0.0
23/02:00am 1.2 -0.7 0.6 96 0.2 CALM 0 0 0 0 1013.9 1014.2 0.0
23/01:56am 0.9 -1.1 0.2 95 0.3 CALM 0 2 0 1 1013.9 1014.2 0.0
23/01:31am 1.3 -1.8 0.4 94 0.3 NNW 6 9 3 5 1013.9 1014.2 0.0
23/01:30am 1.2 -1.9 0.2 93 0.4 NNW 6 9 3 5 1013.9 1014.2 0.0
23/01:00am 1.6 -0.7 0.7 94 0.3 NNW 2 6 1 3 1013.9 1014.2 0.0
23/12:30am 1.7 -1.3 0.7 93 0.4 NW 6 9 3 5 1013.9 1014.2 0.0
23/12:00am 1.3 -2.0 0.0 91 0.5 NE 7 9 4 5 1013.8 1014.1 0.0
 
Date/Time
EST
Temp
°C
App
Temp
°C
Dew
Point
°C
Rel
Hum
%
Delta-T
°C
Wind Press
QNH
hPa
Press
MSL
hPa
Rain since
9am
mm
Dir  Spd
km/h
Gust
km/h
Spd
kts
Gust
kts
22/11:30pm 3.1 -0.2 2.2 94 0.4 N 9 11 5 6 1013.7 1014.0 0.0
22/11:00pm 2.5 -0.4 1.3 92 0.5 NW 6 11 3 6 1013.6 1013.9 0.0
22/10:30pm 1.3 -2.8 0.1 92 0.4 NNW 11 11 6 6 1013.6 1013.9 0.0
22/10:00pm 2.2 -1.3 1.2 93 0.4 NNW 9 13 5 7 1013.5 1013.8 0.0
22/09:30pm 3.6 0.3 2.6 93 0.4 NNW 9 11 5 6 1013.2 1013.5 0.0
22/09:00pm 2.5 -1.0 1.2 91 0.5 NNW 9 13 5 7 1013.1 1013.4 0.0
22/08:30pm 4.7 1.8 2.6 86 0.9 NNW 7 9 4 5 1013.0 1013.3 0.0
22/08:00pm 4.9 2.1 3.2 89 0.7 NE 7 11 4 6 1012.6 1012.9 0.0
22/07:30pm 4.4 1.1 2.6 88 0.7 NNW 9 11 5 6 1012.3 1012.6 0.0
22/07:00pm 4.2 0.5 2.2 87 0.8 NNW 11 15 6 8 1012.1 1012.4 0.0
22/06:30pm 5.5 0.7 2.7 82 1.2 NNW 17 20 9 11 1011.6 1012.0 0.0
22/06:00pm 6.9 1.3 3.2 77 1.6 NNW 22 28 12 15 1011.2 1011.6 0.0
22/05:30pm 7.6 2.4 3.8 77 1.6 NNW 20 24 11 13 1010.9 1011.3 0.0
22/05:00pm 8.7 2.5 4.3 74 2.0 NNW 26 32 14 17 1010.8 1011.2 0.0
22/04:30pm 9.0 2.8 4.2 72 2.1 NNW 26 32 14 17 1010.5 1010.8 0.0
22/04:00pm 9.7 3.5 4.3 69 2.4 NNW 26 32 14 17 1010.4 1010.7 0.0
22/03:30pm 10.2 3.3 2.8 60 3.2 NNW 28 35 15 19 1010.1 1010.4 0.0
22/03:00pm 11.0 3.7 2.6 56 3.7 NNW 30 37 16 20 1010.0 1010.3 0.0
22/02:30pm 10.7 4.5 2.3 56 3.6 NNW 24 30 13 16 1009.9 1010.2 0.0
22/02:00pm 12.0 5.9 2.7 53 4.1 NNW 24 32 13 17 1009.9 1010.2 0.0
22/01:30pm 11.4 5.8 1.1 49 4.3 NNW 20 30 11 16 1010.2 1010.5 0.0
22/01:00pm 11.5 4.9 2.0 52 4.1 NNW 26 32 14 17 1010.5 1010.8 0.0
22/12:30pm 11.1 4.7 3.4 59 3.4 NNW 26 32 14 17 1010.7 1011.1 0.0
22/12:00pm 10.8 4.9 4.0 63 3.1 NNW 24 33 13 18 1011.0 1011.4 0.0
22/11:30am 9.8 3.2 1.9 58 3.3 NNW 26 32 14 17 1011.3 1011.7 0.0
22/11:00am 9.1 2.6 2.4 63 2.9 NNW 26 35 14 19 1011.4 1011.8 0.0
22/10:30am 7.9 2.1 2.4 68 2.3 NNW 22 28 12 15 1011.7 1012.1 0.0
22/10:00am 6.3 1.0 2.9 79 1.4 NNW 20 24 11 13 1012.0 1012.3 0.0
22/09:30am 6.1 0.8 2.9 80 1.3 NNW 20 24 11 13 1012.0 1012.3 0.0
22/09:00am 4.7 0.7 2.9 88 0.7 N 13 15 7 8 1012.0 1012.3 0.0
22/08:30am 4.7 0.3 2.9 88 0.7 NNW 15 19 8 10 1011.8 1012.2 0.0
22/08:00am 3.6 -0.1 2.3 91 0.5 NNW 11 15 6 8 1011.6 1012.0 0.0

Other Formats:

Comma delimited format used in spreadsheet applications
http://www.bom.gov.au/fwo/IDT60801/IDT60801.95966.axf

JavaScript Object Notation format (JSON) in row-major order
http://www.bom.gov.au/fwo/IDT60801/IDT60801.95966.json